sensor_id;sensor_type;location;lat;lon;timestamp;temperature;humidity
19060;DHT22;9663;48.996;8.334;2024-01-25T00:01:47;14.80;55.40
19060;DHT22;9663;48.996;8.334;2024-01-25T00:04:12;14.80;55.40
19060;DHT22;9663;48.996;8.334;2024-01-25T00:06:38;14.80;55.40
19060;DHT22;9663;48.996;8.334;2024-01-25T00:09:04;14.80;55.40
19060;DHT22;9663;48.996;8.334;2024-01-25T00:11:29;14.90;55.40
19060;DHT22;9663;48.996;8.334;2024-01-25T00:13:57;14.80;55.40
19060;DHT22;9663;48.996;8.334;2024-01-25T00:16:23;14.90;55.40
19060;DHT22;9663;48.996;8.334;2024-01-25T00:18:49;14.90;55.50
19060;DHT22;9663;48.996;8.334;2024-01-25T00:21:14;14.90;55.50
19060;DHT22;9663;48.996;8.334;2024-01-25T00:23:40;14.80;55.50
19060;DHT22;9663;48.996;8.334;2024-01-25T00:26:06;14.90;55.50
19060;DHT22;9663;48.996;8.334;2024-01-25T00:28:31;14.80;55.50
19060;DHT22;9663;48.996;8.334;2024-01-25T00:30:59;14.80;55.60
19060;DHT22;9663;48.996;8.334;2024-01-25T00:33:24;14.80;55.50
19060;DHT22;9663;48.996;8.334;2024-01-25T00:35:50;14.80;55.60
19060;DHT22;9663;48.996;8.334;2024-01-25T00:38:17;14.80;55.60
19060;DHT22;9663;48.996;8.334;2024-01-25T00:40:43;14.80;55.60
19060;DHT22;9663;48.996;8.334;2024-01-25T00:43:09;14.80;55.70
19060;DHT22;9663;48.996;8.334;2024-01-25T00:45:35;14.90;55.70
19060;DHT22;9663;48.996;8.334;2024-01-25T00:48:01;14.90;55.70
19060;DHT22;9663;48.996;8.334;2024-01-25T00:50:27;14.80;55.70
19060;DHT22;9663;48.996;8.334;2024-01-25T00:52:53;14.90;55.80
19060;DHT22;9663;48.996;8.334;2024-01-25T00:55:19;14.90;55.80
19060;DHT22;9663;48.996;8.334;2024-01-25T00:57:46;14.90;55.70
19060;DHT22;9663;48.996;8.334;2024-01-25T01:00:12;14.90;55.80
19060;DHT22;9663;48.996;8.334;2024-01-25T01:02:47;14.90;55.80
19060;DHT22;9663;48.996;8.334;2024-01-25T01:05:13;14.90;55.90
19060;DHT22;9663;48.996;8.334;2024-01-25T01:07:40;14.90;55.80
19060;DHT22;9663;48.996;8.334;2024-01-25T01:10:07;14.90;55.80
19060;DHT22;9663;48.996;8.334;2024-01-25T01:12:34;14.90;55.80
19060;DHT22;9663;48.996;8.334;2024-01-25T01:15:00;14.90;55.90
19060;DHT22;9663;48.996;8.334;2024-01-25T01:17:25;14.80;55.80
19060;DHT22;9663;48.996;8.334;2024-01-25T01:19:52;14.80;55.80
19060;DHT22;9663;48.996;8.334;2024-01-25T01:22:18;14.80;55.80
19060;DHT22;9663;48.996;8.334;2024-01-25T01:24:44;14.80;55.80
19060;DHT22;9663;48.996;8.334;2024-01-25T01:27:10;14.80;55.90
19060;DHT22;9663;48.996;8.334;2024-01-25T01:29:35;14.80;55.90
19060;DHT22;9663;48.996;8.334;2024-01-25T01:32:01;14.80;55.90
19060;DHT22;9663;48.996;8.334;2024-01-25T01:34:27;14.80;55.90
19060;DHT22;9663;48.996;8.334;2024-01-25T01:36:53;14.80;55.90
19060;DHT22;9663;48.996;8.334;2024-01-25T01:39:19;14.80;56.00
19060;DHT22;9663;48.996;8.334;2024-01-25T01:41:48;14.80;56.00
19060;DHT22;9663;48.996;8.334;2024-01-25T01:44:15;14.80;56.00
19060;DHT22;9663;48.996;8.334;2024-01-25T01:46:41;14.80;56.00
19060;DHT22;9663;48.996;8.334;2024-01-25T01:49:10;14.80;56.00
19060;DHT22;9663;48.996;8.334;2024-01-25T01:51:37;14.80;56.00
19060;DHT22;9663;48.996;8.334;2024-01-25T01:54:06;14.80;56.70
19060;DHT22;9663;48.996;8.334;2024-01-25T01:56:33;14.90;56.00
19060;DHT22;9663;48.996;8.334;2024-01-25T01:59:00;14.80;56.00
19060;DHT22;9663;48.996;8.334;2024-01-25T02:01:30;14.80;56.00
19060;DHT22;9663;48.996;8.334;2024-01-25T02:03:57;14.90;56.10
19060;DHT22;9663;48.996;8.334;2024-01-25T02:06:26;14.80;56.00
19060;DHT22;9663;48.996;8.334;2024-01-25T02:08:52;14.80;56.00
19060;DHT22;9663;48.996;8.334;2024-01-25T02:11:24;14.80;56.00
19060;DHT22;9663;48.996;8.334;2024-01-25T02:13:50;14.80;56.00
19060;DHT22;9663;48.996;8.334;2024-01-25T02:16:16;14.80;56.00
19060;DHT22;9663;48.996;8.334;2024-01-25T02:18:43;14.80;56.00
19060;DHT22;9663;48.996;8.334;2024-01-25T02:21:08;14.80;56.00
19060;DHT22;9663;48.996;8.334;2024-01-25T02:23:34;14.80;56.00
19060;DHT22;9663;48.996;8.334;2024-01-25T02:26:00;14.80;56.00
19060;DHT22;9663;48.996;8.334;2024-01-25T02:28:26;14.80;56.00
19060;DHT22;9663;48.996;8.334;2024-01-25T02:30:51;14.80;56.00
19060;DHT22;9663;48.996;8.334;2024-01-25T02:33:17;14.80;56.00
19060;DHT22;9663;48.996;8.334;2024-01-25T02:35:43;14.80;56.00
19060;DHT22;9663;48.996;8.334;2024-01-25T02:38:08;14.80;56.00
19060;DHT22;9663;48.996;8.334;2024-01-25T02:40:34;14.80;56.00
19060;DHT22;9663;48.996;8.334;2024-01-25T02:43:00;14.80;56.00
19060;DHT22;9663;48.996;8.334;2024-01-25T02:45:25;14.80;56.00
19060;DHT22;9663;48.996;8.334;2024-01-25T02:47:51;14.80;56.00
19060;DHT22;9663;48.996;8.334;2024-01-25T02:50:17;14.80;56.00
19060;DHT22;9663;48.996;8.334;2024-01-25T02:52:42;14.80;55.90
19060;DHT22;9663;48.996;8.334;2024-01-25T02:55:08;14.70;55.80
19060;DHT22;9663;48.996;8.334;2024-01-25T02:57:34;14.70;55.80
19060;DHT22;9663;48.996;8.334;2024-01-25T03:00:00;14.80;55.80
19060;DHT22;9663;48.996;8.334;2024-01-25T03:02:25;14.80;55.80
19060;DHT22;9663;48.996;8.334;2024-01-25T03:04:51;14.80;55.80
19060;DHT22;9663;48.996;8.334;2024-01-25T03:07:17;14.80;55.80
19060;DHT22;9663;48.996;8.334;2024-01-25T03:09:43;14.80;55.70
19060;DHT22;9663;48.996;8.334;2024-01-25T03:12:09;14.80;55.80
19060;DHT22;9663;48.996;8.334;2024-01-25T03:14:35;14.80;55.70
19060;DHT22;9663;48.996;8.334;2024-01-25T03:17:00;14.80;55.70
19060;DHT22;9663;48.996;8.334;2024-01-25T03:19:27;14.80;55.70
19060;DHT22;9663;48.996;8.334;2024-01-25T03:21:53;14.80;55.70
19060;DHT22;9663;48.996;8.334;2024-01-25T03:24:20;14.80;55.70
19060;DHT22;9663;48.996;8.334;2024-01-25T03:26:46;14.80;55.60
19060;DHT22;9663;48.996;8.334;2024-01-25T03:29:11;14.80;55.60
19060;DHT22;9663;48.996;8.334;2024-01-25T03:31:37;14.80;55.60
19060;DHT22;9663;48.996;8.334;2024-01-25T03:34:03;14.70;55.50
19060;DHT22;9663;48.996;8.334;2024-01-25T03:36:30;14.70;55.60
19060;DHT22;9663;48.996;8.334;2024-01-25T03:38:57;14.70;55.60
19060;DHT22;9663;48.996;8.334;2024-01-25T03:41:23;14.70;55.60
19060;DHT22;9663;48.996;8.334;2024-01-25T03:43:49;14.70;55.60
19060;DHT22;9663;48.996;8.334;2024-01-25T03:46:15;14.70;55.60
19060;DHT22;9663;48.996;8.334;2024-01-25T03:48:41;14.70;55.60
19060;DHT22;9663;48.996;8.334;2024-01-25T03:51:07;14.70;55.60
19060;DHT22;9663;48.996;8.334;2024-01-25T03:53:33;14.70;55.60
19060;DHT22;9663;48.996;8.334;2024-01-25T03:55:59;14.70;55.50
19060;DHT22;9663;48.996;8.334;2024-01-25T03:58:25;14.60;55.50
19060;DHT22;9663;48.996;8.334;2024-01-25T04:00:51;14.60;55.50
19060;DHT22;9663;48.996;8.334;2024-01-25T04:03:17;14.60;55.50
19060;DHT22;9663;48.996;8.334;2024-01-25T04:05:42;14.60;55.50
19060;DHT22;9663;48.996;8.334;2024-01-25T04:08:08;14.60;55.50
19060;DHT22;9663;48.996;8.334;2024-01-25T04:10:34;14.60;55.50
19060;DHT22;9663;48.996;8.334;2024-01-25T04:13:00;14.50;55.50
19060;DHT22;9663;48.996;8.334;2024-01-25T04:15:26;14.60;55.60
19060;DHT22;9663;48.996;8.334;2024-01-25T04:17:52;14.60;55.60
19060;DHT22;9663;48.996;8.334;2024-01-25T04:20:24;14.50;55.50
19060;DHT22;9663;48.996;8.334;2024-01-25T04:22:50;14.50;55.50
19060;DHT22;9663;48.996;8.334;2024-01-25T04:25:15;14.50;55.60
19060;DHT22;9663;48.996;8.334;2024-01-25T04:27:41;14.50;55.60
19060;DHT22;9663;48.996;8.334;2024-01-25T04:30:08;14.50;55.60
19060;DHT22;9663;48.996;8.334;2024-01-25T04:32:34;14.60;55.60
19060;DHT22;9663;48.996;8.334;2024-01-25T04:35:00;14.50;55.50
19060;DHT22;9663;48.996;8.334;2024-01-25T04:37:26;14.50;55.60
19060;DHT22;9663;48.996;8.334;2024-01-25T04:39:52;14.50;55.50
19060;DHT22;9663;48.996;8.334;2024-01-25T04:42:17;14.50;55.50
19060;DHT22;9663;48.996;8.334;2024-01-25T04:44:43;14.50;55.50
19060;DHT22;9663;48.996;8.334;2024-01-25T04:47:09;14.50;55.50
19060;DHT22;9663;48.996;8.334;2024-01-25T04:49:35;14.50;55.50
19060;DHT22;9663;48.996;8.334;2024-01-25T04:52:02;14.40;55.50
19060;DHT22;9663;48.996;8.334;2024-01-25T04:54:27;14.40;55.50
19060;DHT22;9663;48.996;8.334;2024-01-25T04:56:53;14.40;55.50
19060;DHT22;9663;48.996;8.334;2024-01-25T04:59:20;14.40;55.50
19060;DHT22;9663;48.996;8.334;2024-01-25T05:01:46;14.40;55.50
19060;DHT22;9663;48.996;8.334;2024-01-25T05:04:16;14.30;55.50
19060;DHT22;9663;48.996;8.334;2024-01-25T05:06:41;14.30;55.60
19060;DHT22;9663;48.996;8.334;2024-01-25T05:09:07;14.20;55.50
19060;DHT22;9663;48.996;8.334;2024-01-25T05:11:38;14.20;55.50
19060;DHT22;9663;48.996;8.334;2024-01-25T05:14:05;14.10;55.50
19060;DHT22;9663;48.996;8.334;2024-01-25T05:16:31;14.10;55.50
19060;DHT22;9663;48.996;8.334;2024-01-25T05:18:57;14.00;55.60
19060;DHT22;9663;48.996;8.334;2024-01-25T05:21:23;13.90;55.60
19060;DHT22;9663;48.996;8.334;2024-01-25T05:23:48;13.80;55.60
19060;DHT22;9663;48.996;8.334;2024-01-25T05:26:15;13.80;56.40
19060;DHT22;9663;48.996;8.334;2024-01-25T05:28:41;13.70;55.80
19060;DHT22;9663;48.996;8.334;2024-01-25T05:31:06;13.60;55.80
19060;DHT22;9663;48.996;8.334;2024-01-25T05:33:40;13.60;55.90
19060;DHT22;9663;48.996;8.334;2024-01-25T05:36:07;13.50;55.90
19060;DHT22;9663;48.996;8.334;2024-01-25T05:38:33;13.40;56.00
19060;DHT22;9663;48.996;8.334;2024-01-25T05:40:59;13.40;56.00
19060;DHT22;9663;48.996;8.334;2024-01-25T05:43:25;13.30;56.00
19060;DHT22;9663;48.996;8.334;2024-01-25T05:45:51;13.30;56.10
19060;DHT22;9663;48.996;8.334;2024-01-25T05:48:16;13.20;56.10
19060;DHT22;9663;48.996;8.334;2024-01-25T05:50:42;13.20;56.20
19060;DHT22;9663;48.996;8.334;2024-01-25T05:53:08;13.10;56.20
19060;DHT22;9663;48.996;8.334;2024-01-25T05:55:34;13.10;56.40
19060;DHT22;9663;48.996;8.334;2024-01-25T05:57:59;13.00;56.30
19060;DHT22;9663;48.996;8.334;2024-01-25T06:00:25;13.00;56.30
19060;DHT22;9663;48.996;8.334;2024-01-25T06:02:51;12.90;56.40
19060;DHT22;9663;48.996;8.334;2024-01-25T06:05:17;12.90;56.40
19060;DHT22;9663;48.996;8.334;2024-01-25T06:07:43;12.90;56.40
19060;DHT22;9663;48.996;8.334;2024-01-25T06:10:11;12.80;56.50
19060;DHT22;9663;48.996;8.334;2024-01-25T06:12:39;12.80;56.60
19060;DHT22;9663;48.996;8.334;2024-01-25T06:15:06;12.70;56.70
19060;DHT22;9663;48.996;8.334;2024-01-25T06:17:32;12.70;56.70
19060;DHT22;9663;48.996;8.334;2024-01-25T06:19:58;12.70;56.80
19060;DHT22;9663;48.996;8.334;2024-01-25T06:22:24;12.60;56.80
19060;DHT22;9663;48.996;8.334;2024-01-25T06:24:49;12.60;56.80
19060;DHT22;9663;48.996;8.334;2024-01-25T06:27:15;12.60;56.90
19060;DHT22;9663;48.996;8.334;2024-01-25T06:29:41;12.50;56.90
19060;DHT22;9663;48.996;8.334;2024-01-25T06:32:06;12.50;57.00
19060;DHT22;9663;48.996;8.334;2024-01-25T06:34:32;12.50;57.00
19060;DHT22;9663;48.996;8.334;2024-01-25T06:36:58;12.50;57.10
19060;DHT22;9663;48.996;8.334;2024-01-25T06:39:23;12.40;57.00
19060;DHT22;9663;48.996;8.334;2024-01-25T06:41:49;12.30;57.00
19060;DHT22;9663;48.996;8.334;2024-01-25T06:44:18;12.30;57.10
19060;DHT22;9663;48.996;8.334;2024-01-25T06:46:44;12.30;57.20
19060;DHT22;9663;48.996;8.334;2024-01-25T06:49:10;12.20;57.20
19060;DHT22;9663;48.996;8.334;2024-01-25T06:51:35;12.10;57.30
19060;DHT22;9663;48.996;8.334;2024-01-25T06:54:01;12.10;57.30
19060;DHT22;9663;48.996;8.334;2024-01-25T06:56:29;12.10;57.30
19060;DHT22;9663;48.996;8.334;2024-01-25T06:58:55;12.00;57.30
19060;DHT22;9663;48.996;8.334;2024-01-25T07:01:23;11.90;57.30
19060;DHT22;9663;48.996;8.334;2024-01-25T07:03:49;11.90;57.60
19060;DHT22;9663;48.996;8.334;2024-01-25T07:06:16;11.90;57.60
19060;DHT22;9663;48.996;8.334;2024-01-25T07:08:44;11.80;57.70
19060;DHT22;9663;48.996;8.334;2024-01-25T07:11:11;11.80;57.80
19060;DHT22;9663;48.996;8.334;2024-01-25T07:13:37;11.80;57.90
19060;DHT22;9663;48.996;8.334;2024-01-25T07:16:02;11.80;58.00
19060;DHT22;9663;48.996;8.334;2024-01-25T07:18:28;11.80;58.10
19060;DHT22;9663;48.996;8.334;2024-01-25T07:20:54;11.80;58.20
19060;DHT22;9663;48.996;8.334;2024-01-25T07:23:21;11.80;58.30
19060;DHT22;9663;48.996;8.334;2024-01-25T07:25:47;11.80;58.30
19060;DHT22;9663;48.996;8.334;2024-01-25T07:28:13;11.80;58.40
19060;DHT22;9663;48.996;8.334;2024-01-25T07:30:39;11.70;58.50
19060;DHT22;9663;48.996;8.334;2024-01-25T07:33:05;11.70;58.60
19060;DHT22;9663;48.996;8.334;2024-01-25T07:35:31;11.70;58.70
19060;DHT22;9663;48.996;8.334;2024-01-25T07:37:57;11.70;58.80
19060;DHT22;9663;48.996;8.334;2024-01-25T07:40:23;11.80;58.80
19060;DHT22;9663;48.996;8.334;2024-01-25T07:42:48;11.80;59.00
19060;DHT22;9663;48.996;8.334;2024-01-25T07:45:14;11.80;59.10
19060;DHT22;9663;48.996;8.334;2024-01-25T07:47:43;11.80;59.20
19060;DHT22;9663;48.996;8.334;2024-01-25T07:50:10;11.80;59.30
19060;DHT22;9663;48.996;8.334;2024-01-25T07:52:35;11.90;59.30
19060;DHT22;9663;48.996;8.334;2024-01-25T07:55:01;11.90;59.30
19060;DHT22;9663;48.996;8.334;2024-01-25T07:57:26;12.00;59.40
19060;DHT22;9663;48.996;8.334;2024-01-25T07:59:52;12.00;59.40
19060;DHT22;9663;48.996;8.334;2024-01-25T08:02:18;12.10;59.40
19060;DHT22;9663;48.996;8.334;2024-01-25T08:04:47;12.20;59.40
19060;DHT22;9663;48.996;8.334;2024-01-25T08:07:13;12.20;59.40
19060;DHT22;9663;48.996;8.334;2024-01-25T08:09:38;12.30;59.40
19060;DHT22;9663;48.996;8.334;2024-01-25T08:12:04;12.30;59.30
19060;DHT22;9663;48.996;8.334;2024-01-25T08:14:30;12.40;59.40
19060;DHT22;9663;48.996;8.334;2024-01-25T08:16:57;12.40;59.40
19060;DHT22;9663;48.996;8.334;2024-01-25T08:19:22;12.50;59.40
19060;DHT22;9663;48.996;8.334;2024-01-25T08:21:48;12.50;59.40
19060;DHT22;9663;48.996;8.334;2024-01-25T08:24:14;12.60;59.40
19060;DHT22;9663;48.996;8.334;2024-01-25T08:26:43;12.60;59.40
19060;DHT22;9663;48.996;8.334;2024-01-25T08:29:09;12.70;59.50
19060;DHT22;9663;48.996;8.334;2024-01-25T08:31:34;12.70;59.40
19060;DHT22;9663;48.996;8.334;2024-01-25T08:34:00;12.70;59.20
19060;DHT22;9663;48.996;8.334;2024-01-25T08:36:26;12.80;59.30
19060;DHT22;9663;48.996;8.334;2024-01-25T08:38:51;12.80;59.30
19060;DHT22;9663;48.996;8.334;2024-01-25T08:41:17;12.90;59.40
19060;DHT22;9663;48.996;8.334;2024-01-25T08:43:43;13.00;59.40
19060;DHT22;9663;48.996;8.334;2024-01-25T08:46:08;13.00;59.40
19060;DHT22;9663;48.996;8.334;2024-01-25T08:48:34;13.10;59.40
19060;DHT22;9663;48.996;8.334;2024-01-25T08:51:00;13.20;59.50
19060;DHT22;9663;48.996;8.334;2024-01-25T08:53:26;13.20;59.40
19060;DHT22;9663;48.996;8.334;2024-01-25T08:55:54;13.30;59.40
19060;DHT22;9663;48.996;8.334;2024-01-25T08:58:20;13.40;59.30
19060;DHT22;9663;48.996;8.334;2024-01-25T09:00:46;13.50;59.30
19060;DHT22;9663;48.996;8.334;2024-01-25T09:03:14;13.60;59.30
19060;DHT22;9663;48.996;8.334;2024-01-25T09:05:40;13.70;59.20
19060;DHT22;9663;48.996;8.334;2024-01-25T09:08:11;13.70;59.00
19060;DHT22;9663;48.996;8.334;2024-01-25T09:10:39;13.70;59.00
19060;DHT22;9663;48.996;8.334;2024-01-25T09:13:06;13.80;59.00
19060;DHT22;9663;48.996;8.334;2024-01-25T09:15:32;13.80;58.90
19060;DHT22;9663;48.996;8.334;2024-01-25T09:17:57;13.90;59.00
19060;DHT22;9663;48.996;8.334;2024-01-25T09:20:23;13.90;59.00
19060;DHT22;9663;48.996;8.334;2024-01-25T09:22:49;14.00;58.90
19060;DHT22;9663;48.996;8.334;2024-01-25T09:25:21;14.10;58.80
19060;DHT22;9663;48.996;8.334;2024-01-25T09:27:47;14.10;58.80
19060;DHT22;9663;48.996;8.334;2024-01-25T09:30:14;14.20;59.00
19060;DHT22;9663;48.996;8.334;2024-01-25T09:32:40;14.30;59.10
19060;DHT22;9663;48.996;8.334;2024-01-25T09:35:09;14.40;59.70
19060;DHT22;9663;48.996;8.334;2024-01-25T09:37:35;14.60;59.00
19060;DHT22;9663;48.996;8.334;2024-01-25T09:40:00;14.70;58.90
19060;DHT22;9663;48.996;8.334;2024-01-25T09:42:26;14.80;58.70
19060;DHT22;9663;48.996;8.334;2024-01-25T09:44:54;14.90;58.60
19060;DHT22;9663;48.996;8.334;2024-01-25T09:47:20;15.00;58.40
19060;DHT22;9663;48.996;8.334;2024-01-25T09:50:03;15.00;58.20
19060;DHT22;9663;48.996;8.334;2024-01-25T09:52:31;15.10;58.20
19060;DHT22;9663;48.996;8.334;2024-01-25T09:54:59;15.30;58.90
19060;DHT22;9663;48.996;8.334;2024-01-25T09:57:28;15.40;58.70
19060;DHT22;9663;48.996;8.334;2024-01-25T09:59:55;15.50;58.40
19060;DHT22;9663;48.996;8.334;2024-01-25T10:02:21;15.60;58.00
19060;DHT22;9663;48.996;8.334;2024-01-25T10:04:51;15.70;57.80
19060;DHT22;9663;48.996;8.334;2024-01-25T10:07:56;15.80;57.70
19060;DHT22;9663;48.996;8.334;2024-01-25T10:10:26;15.90;57.60
19060;DHT22;9663;48.996;8.334;2024-01-25T10:12:55;15.90;57.40
19060;DHT22;9663;48.996;8.334;2024-01-25T10:15:21;16.00;57.20
19060;DHT22;9663;48.996;8.334;2024-01-25T10:17:49;16.00;57.10
19060;DHT22;9663;48.996;8.334;2024-01-25T10:20:15;16.10;57.10
19060;DHT22;9663;48.996;8.334;2024-01-25T10:22:42;16.10;57.20
19060;DHT22;9663;48.996;8.334;2024-01-25T10:25:13;16.20;57.30
19060;DHT22;9663;48.996;8.334;2024-01-25T10:27:40;16.50;57.20
19060;DHT22;9663;48.996;8.334;2024-01-25T10:30:10;16.50;56.90
19060;DHT22;9663;48.996;8.334;2024-01-25T10:32:37;16.80;56.60
19060;DHT22;9663;48.996;8.334;2024-01-25T10:35:04;16.80;56.30
19060;DHT22;9663;48.996;8.334;2024-01-25T10:37:30;16.70;55.70
19060;DHT22;9663;48.996;8.334;2024-01-25T10:39:57;16.60;55.40
19060;DHT22;9663;48.996;8.334;2024-01-25T10:42:24;16.50;55.40
19060;DHT22;9663;48.996;8.334;2024-01-25T10:44:49;16.40;55.60
19060;DHT22;9663;48.996;8.334;2024-01-25T10:47:15;16.40;56.20
19060;DHT22;9663;48.996;8.334;2024-01-25T10:49:41;16.40;56.30
19060;DHT22;9663;48.996;8.334;2024-01-25T10:52:07;16.50;56.00
19060;DHT22;9663;48.996;8.334;2024-01-25T10:54:34;16.50;55.70
19060;DHT22;9663;48.996;8.334;2024-01-25T10:57:00;16.40;55.30
19060;DHT22;9663;48.996;8.334;2024-01-25T10:59:28;16.40;55.60
19060;DHT22;9663;48.996;8.334;2024-01-25T11:01:54;16.40;55.70
19060;DHT22;9663;48.996;8.334;2024-01-25T11:04:20;16.40;55.80
19060;DHT22;9663;48.996;8.334;2024-01-25T11:06:46;16.40;55.70
19060;DHT22;9663;48.996;8.334;2024-01-25T11:09:20;16.40;55.60
19060;DHT22;9663;48.996;8.334;2024-01-25T11:11:49;16.40;55.20
19060;DHT22;9663;48.996;8.334;2024-01-25T11:14:19;16.40;55.30
19060;DHT22;9663;48.996;8.334;2024-01-25T11:16:45;16.30;55.40
19060;DHT22;9663;48.996;8.334;2024-01-25T11:19:19;16.20;55.40
19060;DHT22;9663;48.996;8.334;2024-01-25T11:21:48;16.20;55.50
19060;DHT22;9663;48.996;8.334;2024-01-25T11:24:27;16.10;55.60
19060;DHT22;9663;48.996;8.334;2024-01-25T11:26:55;16.20;56.30
19060;DHT22;9663;48.996;8.334;2024-01-25T11:29:24;16.30;56.30
19060;DHT22;9663;48.996;8.334;2024-01-25T11:31:51;16.30;55.90
19060;DHT22;9663;48.996;8.334;2024-01-25T11:34:17;16.40;55.60
19060;DHT22;9663;48.996;8.334;2024-01-25T11:36:49;16.30;55.30
19060;DHT22;9663;48.996;8.334;2024-01-25T11:39:16;16.30;55.30
19060;DHT22;9663;48.996;8.334;2024-01-25T11:41:43;16.40;55.80
19060;DHT22;9663;48.996;8.334;2024-01-25T11:44:11;16.30;55.60
19060;DHT22;9663;48.996;8.334;2024-01-25T11:46:38;16.30;55.40
19060;DHT22;9663;48.996;8.334;2024-01-25T11:49:03;16.20;55.30
19060;DHT22;9663;48.996;8.334;2024-01-25T11:51:29;16.20;55.20
19060;DHT22;9663;48.996;8.334;2024-01-25T11:53:54;16.10;55.30
19060;DHT22;9663;48.996;8.334;2024-01-25T11:56:30;16.10;55.40
19060;DHT22;9663;48.996;8.334;2024-01-25T11:58:58;16.10;55.30
19060;DHT22;9663;48.996;8.334;2024-01-25T12:01:25;16.10;55.30
19060;DHT22;9663;48.996;8.334;2024-01-25T12:03:52;16.10;55.30
19060;DHT22;9663;48.996;8.334;2024-01-25T12:06:18;16.00;55.20
19060;DHT22;9663;48.996;8.334;2024-01-25T12:08:45;15.90;55.20
19060;DHT22;9663;48.996;8.334;2024-01-25T12:11:14;16.00;55.40
19060;DHT22;9663;48.996;8.334;2024-01-25T12:13:42;16.10;55.80
19060;DHT22;9663;48.996;8.334;2024-01-25T12:16:09;16.10;55.70
19060;DHT22;9663;48.996;8.334;2024-01-25T12:18:37;16.20;55.60
19060;DHT22;9663;48.996;8.334;2024-01-25T12:21:05;16.20;55.30
19060;DHT22;9663;48.996;8.334;2024-01-25T12:23:35;16.20;55.10
19060;DHT22;9663;48.996;8.334;2024-01-25T12:26:07;16.20;55.10
19060;DHT22;9663;48.996;8.334;2024-01-25T12:28:34;16.10;55.00
19060;DHT22;9663;48.996;8.334;2024-01-25T12:31:00;16.10;55.00
19060;DHT22;9663;48.996;8.334;2024-01-25T12:33:29;16.20;55.60
19060;DHT22;9663;48.996;8.334;2024-01-25T12:35:55;16.40;55.80
19060;DHT22;9663;48.996;8.334;2024-01-25T12:38:22;16.70;55.30
19060;DHT22;9663;48.996;8.334;2024-01-25T12:40:50;16.80;54.90
19060;DHT22;9663;48.996;8.334;2024-01-25T12:43:16;16.90;54.90
19060;DHT22;9663;48.996;8.334;2024-01-25T12:45:43;17.00;55.00
19060;DHT22;9663;48.996;8.334;2024-01-25T12:48:09;17.40;55.00
19060;DHT22;9663;48.996;8.334;2024-01-25T12:50:35;17.60;54.30
19060;DHT22;9663;48.996;8.334;2024-01-25T12:53:04;17.70;53.70
19060;DHT22;9663;48.996;8.334;2024-01-25T12:55:33;17.70;53.40
19060;DHT22;9663;48.996;8.334;2024-01-25T12:58:00;17.50;53.30
19060;DHT22;9663;48.996;8.334;2024-01-25T13:00:26;17.40;53.40
19060;DHT22;9663;48.996;8.334;2024-01-25T13:02:52;17.20;53.50
19060;DHT22;9663;48.996;8.334;2024-01-25T13:05:23;17.10;53.80
19060;DHT22;9663;48.996;8.334;2024-01-25T13:07:49;17.10;53.90
19060;DHT22;9663;48.996;8.334;2024-01-25T13:10:15;17.00;53.90
19060;DHT22;9663;48.996;8.334;2024-01-25T13:12:41;17.00;54.00
19060;DHT22;9663;48.996;8.334;2024-01-25T13:15:07;17.00;54.00
19060;DHT22;9663;48.996;8.334;2024-01-25T13:17:36;17.00;54.00
19060;DHT22;9663;48.996;8.334;2024-01-25T13:20:04;16.90;53.90
19060;DHT22;9663;48.996;8.334;2024-01-25T13:22:34;16.90;54.00
19060;DHT22;9663;48.996;8.334;2024-01-25T13:25:01;16.90;54.00
19060;DHT22;9663;48.996;8.334;2024-01-25T13:27:27;16.90;54.00
19060;DHT22;9663;48.996;8.334;2024-01-25T13:29:53;17.00;54.10
19060;DHT22;9663;48.996;8.334;2024-01-25T13:32:20;17.00;54.10
19060;DHT22;9663;48.996;8.334;2024-01-25T13:34:46;17.00;53.90
19060;DHT22;9663;48.996;8.334;2024-01-25T13:37:11;17.00;53.70
19060;DHT22;9663;48.996;8.334;2024-01-25T13:39:37;17.00;53.60
19060;DHT22;9663;48.996;8.334;2024-01-25T13:42:03;16.90;53.70
19060;DHT22;9663;48.996;8.334;2024-01-25T13:44:28;16.90;53.80
19060;DHT22;9663;48.996;8.334;2024-01-25T13:46:54;16.90;53.70
19060;DHT22;9663;48.996;8.334;2024-01-25T13:49:21;16.90;53.80
19060;DHT22;9663;48.996;8.334;2024-01-25T13:51:47;16.80;53.70
19060;DHT22;9663;48.996;8.334;2024-01-25T13:54:13;16.80;53.80
19060;DHT22;9663;48.996;8.334;2024-01-25T13:56:39;16.70;53.80
19060;DHT22;9663;48.996;8.334;2024-01-25T13:59:05;16.60;53.90
19060;DHT22;9663;48.996;8.334;2024-01-25T14:01:31;16.60;53.90
19060;DHT22;9663;48.996;8.334;2024-01-25T14:03:57;16.50;53.90
19060;DHT22;9663;48.996;8.334;2024-01-25T14:06:23;16.40;54.00
19060;DHT22;9663;48.996;8.334;2024-01-25T14:08:50;16.40;54.20
19060;DHT22;9663;48.996;8.334;2024-01-25T14:11:17;16.30;54.20
19060;DHT22;9663;48.996;8.334;2024-01-25T14:13:42;16.30;54.30
19060;DHT22;9663;48.996;8.334;2024-01-25T14:16:08;16.20;54.30
19060;DHT22;9663;48.996;8.334;2024-01-25T14:18:39;16.10;54.30
19060;DHT22;9663;48.996;8.334;2024-01-25T14:21:05;16.10;54.40
19060;DHT22;9663;48.996;8.334;2024-01-25T14:23:34;16.00;54.50
19060;DHT22;9663;48.996;8.334;2024-01-25T14:26:00;16.00;54.60
19060;DHT22;9663;48.996;8.334;2024-01-25T14:28:26;15.90;54.60
19060;DHT22;9663;48.996;8.334;2024-01-25T14:30:51;15.90;54.80
19060;DHT22;9663;48.996;8.334;2024-01-25T14:33:17;15.80;54.90
19060;DHT22;9663;48.996;8.334;2024-01-25T14:35:43;15.90;55.90
19060;DHT22;9663;48.996;8.334;2024-01-25T14:38:08;16.00;55.60
19060;DHT22;9663;48.996;8.334;2024-01-25T14:40:34;16.00;55.30
19060;DHT22;9663;48.996;8.334;2024-01-25T14:43:00;16.00;55.10
19060;DHT22;9663;48.996;8.334;2024-01-25T14:45:27;16.00;55.00
19060;DHT22;9663;48.996;8.334;2024-01-25T14:47:55;15.90;54.90
19060;DHT22;9663;48.996;8.334;2024-01-25T14:50:21;15.90;54.90
19060;DHT22;9663;48.996;8.334;2024-01-25T14:52:47;15.90;54.90
19060;DHT22;9663;48.996;8.334;2024-01-25T14:55:13;15.90;55.00
19060;DHT22;9663;48.996;8.334;2024-01-25T14:57:39;15.80;55.00
19060;DHT22;9663;48.996;8.334;2024-01-25T15:00:05;15.80;55.00
19060;DHT22;9663;48.996;8.334;2024-01-25T15:02:32;15.70;55.00
19060;DHT22;9663;48.996;8.334;2024-01-25T15:04:58;15.70;55.20
19060;DHT22;9663;48.996;8.334;2024-01-25T15:07:24;15.60;55.30
19060;DHT22;9663;48.996;8.334;2024-01-25T15:09:50;15.50;55.30
19060;DHT22;9663;48.996;8.334;2024-01-25T15:12:16;15.40;55.40
19060;DHT22;9663;48.996;8.334;2024-01-25T15:14:43;15.40;55.60
19060;DHT22;9663;48.996;8.334;2024-01-25T15:17:09;15.30;55.70
19060;DHT22;9663;48.996;8.334;2024-01-25T15:19:35;15.20;55.70
19060;DHT22;9663;48.996;8.334;2024-01-25T15:22:03;15.10;55.80
19060;DHT22;9663;48.996;8.334;2024-01-25T15:24:29;15.10;55.90
19060;DHT22;9663;48.996;8.334;2024-01-25T15:26:57;15.00;56.00
19060;DHT22;9663;48.996;8.334;2024-01-25T15:29:23;14.90;56.20
19060;DHT22;9663;48.996;8.334;2024-01-25T15:31:49;14.90;56.30
19060;DHT22;9663;48.996;8.334;2024-01-25T15:34:15;14.80;56.40
19060;DHT22;9663;48.996;8.334;2024-01-25T15:36:41;14.70;56.60
19060;DHT22;9663;48.996;8.334;2024-01-25T15:39:09;14.70;56.70
19060;DHT22;9663;48.996;8.334;2024-01-25T15:41:36;14.60;56.70